createdAt,value
2022-10-05T00:01:00.940Z,5.36
2022-10-05T00:03:35.123Z,5.35
2022-10-05T00:06:05.181Z,5.35
2022-10-05T00:08:36.121Z,5.35
2022-10-05T00:11:06.686Z,5.26
2022-10-05T00:13:36.268Z,5.29
2022-10-05T00:16:19.315Z,5.30
2022-10-05T00:18:54.243Z,5.28
2022-10-05T00:21:26.578Z,5.30
2022-10-05T00:23:59.855Z,5.16
2022-10-05T00:26:32.905Z,5.22
2022-10-05T00:29:04.695Z,5.16
2022-10-05T00:31:37.208Z,5.18
2022-10-05T00:34:07.086Z,5.13
2022-10-05T00:36:38.420Z,5.16
2022-10-05T00:39:08.299Z,5.15
2022-10-05T00:41:44.405Z,5.19
2022-10-05T00:44:22.821Z,5.19
2022-10-05T00:47:15.458Z,5.18
2022-10-05T00:50:05.245Z,5.25
2022-10-05T00:53:04.712Z,5.23
2022-10-05T00:55:47.314Z,5.18
2022-10-05T00:58:38.000Z,5.14
2022-10-05T01:01:28.800Z,5.18
2022-10-05T01:04:26.378Z,5.16
2022-10-05T01:07:23.463Z,5.06
2022-10-05T01:10:05.348Z,5.09
2022-10-05T01:12:40.881Z,4.97
2022-10-05T01:15:22.687Z,4.99
2022-10-05T01:18:16.611Z,5.00
2022-10-05T01:20:52.037Z,4.99
2022-10-05T01:23:56.248Z,4.94
2022-10-05T01:26:35.007Z,4.98
2022-10-05T01:29:19.526Z,4.77
2022-10-05T01:31:55.235Z,4.86
2022-10-05T01:34:37.047Z,4.98
2022-10-05T01:37:13.014Z,4.93
2022-10-05T01:39:57.652Z,4.91
2022-10-05T01:42:39.614Z,4.94
2022-10-05T01:45:32.094Z,4.89
2022-10-05T01:48:11.734Z,4.92
2022-10-05T01:50:56.656Z,4.94
2022-10-05T01:53:44.417Z,4.89
2022-10-05T01:56:20.407Z,4.79
2022-10-05T01:59:15.242Z,4.79
2022-10-05T02:02:08.044Z,4.79
2022-10-05T02:05:03.127Z,4.77
2022-10-05T02:07:24.117Z,4.60
2022-10-05T02:09:58.481Z,4.72
2022-10-05T02:12:32.656Z,4.66
2022-10-05T02:15:05.968Z,4.62
2022-10-05T02:17:41.499Z,4.63
2022-10-05T02:20:14.068Z,4.67
2022-10-05T02:22:47.533Z,4.64
2022-10-05T02:25:24.488Z,4.59
2022-10-05T02:28:00.430Z,4.59
2022-10-05T02:30:33.268Z,4.64
2022-10-05T02:33:09.445Z,4.63
2022-10-05T02:35:39.440Z,4.61
2022-10-05T02:38:12.183Z,4.57
2022-10-05T02:41:06.153Z,4.61
2022-10-05T02:43:54.017Z,4.55
2022-10-05T02:46:40.386Z,4.47
2022-10-05T02:49:34.599Z,4.48
2022-10-05T02:52:07.538Z,4.46
2022-10-05T02:54:58.746Z,4.46
2022-10-05T02:57:34.890Z,4.43
2022-10-05T03:00:10.564Z,4.50
2022-10-05T03:03:05.955Z,4.48
2022-10-05T03:05:41.961Z,4.43
2022-10-05T03:08:29.511Z,4.54
2022-10-05T03:11:35.515Z,4.49
2022-10-05T03:14:15.535Z,4.57
2022-10-05T03:16:48.878Z,4.54
2022-10-05T03:19:58.811Z,4.58
2022-10-05T03:22:54.573Z,4.58
2022-10-05T03:25:33.314Z,4.54
2022-10-05T03:28:12.083Z,4.61
2022-10-05T03:31:13.869Z,4.52
2022-10-05T03:33:47.064Z,4.57
2022-10-05T03:36:25.332Z,4.60
2022-10-05T03:38:58.268Z,4.67
2022-10-05T03:41:40.323Z,4.65
2022-10-05T03:44:21.670Z,4.64
2022-10-05T03:47:10.697Z,4.73
2022-10-05T03:49:55.691Z,4.78
2022-10-05T03:52:28.601Z,4.77
2022-10-05T03:55:04.312Z,4.87
2022-10-05T03:57:40.320Z,4.81
2022-10-05T04:00:19.044Z,4.91
2022-10-05T04:03:16.237Z,4.88
2022-10-05T04:05:49.729Z,4.88
2022-10-05T04:08:34.474Z,4.95
2022-10-05T04:11:07.696Z,4.78
2022-10-05T04:13:40.704Z,4.74
2022-10-05T04:16:22.167Z,4.90
2022-10-05T04:18:54.333Z,4.83
2022-10-05T04:21:33.061Z,4.81
2022-10-05T04:24:08.821Z,4.84
2022-10-05T04:26:58.209Z,5.05
2022-10-05T04:29:52.476Z,4.87
2022-10-05T04:32:34.243Z,4.87
2022-10-05T04:35:40.122Z,4.87
2022-10-05T04:38:33.897Z,4.87
2022-10-05T04:41:36.195Z,4.89
2022-10-05T04:44:13.598Z,4.85
2022-10-05T04:47:09.540Z,4.93
2022-10-05T04:49:54.190Z,4.92
2022-10-05T04:52:32.991Z,4.96
2022-10-05T04:55:33.194Z,5.01
2022-10-05T04:58:11.816Z,5.03
2022-10-05T05:01:02.431Z,5.07
2022-10-05T05:03:53.461Z,5.03
2022-10-05T05:06:35.308Z,4.96
2022-10-05T05:09:21.564Z,4.95
2022-10-05T05:12:06.763Z,5.08
2022-10-05T05:14:57.678Z,5.17
2022-10-05T05:17:39.878Z,5.03
2022-10-05T05:20:36.757Z,5.04
2022-10-05T05:23:15.513Z,5.04
2022-10-05T05:25:51.630Z,5.12
2022-10-05T05:28:27.766Z,5.10
2022-10-05T05:31:13.575Z,5.06
2022-10-05T05:34:15.856Z,5.15
2022-10-05T05:36:54.539Z,5.25
2022-10-05T05:39:33.802Z,5.29
2022-10-05T05:42:12.785Z,5.27
2022-10-05T05:44:48.191Z,5.17
2022-10-05T05:47:23.718Z,5.17
2022-10-05T05:50:11.580Z,5.23
2022-10-05T05:52:47.952Z,5.23
2022-10-05T05:55:29.154Z,5.38
2022-10-05T05:57:59.600Z,5.38
2022-10-05T06:00:38.020Z,5.52
2022-10-05T06:03:25.977Z,5.58
2022-10-05T06:06:01.920Z,5.63
2022-10-05T06:08:39.298Z,5.78
2022-10-05T06:11:22.963Z,5.92
2022-10-05T06:13:54.138Z,6.11
2022-10-05T06:16:27.128Z,6.22
2022-10-05T06:19:00.411Z,6.35
2022-10-05T06:21:48.267Z,6.54
2022-10-05T06:24:29.962Z,7.20
2022-10-05T06:27:26.094Z,7.20
2022-10-05T06:30:18.182Z,7.38
2022-10-05T06:32:53.753Z,7.53
2022-10-05T06:35:36.687Z,7.70
2022-10-05T06:38:12.924Z,7.95
2022-10-05T06:41:12.979Z,8.12
2022-10-05T06:44:04.156Z,8.28
2022-10-05T06:46:58.193Z,8.78
2022-10-05T06:50:06.532Z,8.78
2022-10-05T06:53:02.167Z,9.08
2022-10-05T06:56:09.966Z,9.36
2022-10-05T06:58:54.843Z,9.63
2022-10-05T07:01:44.295Z,9.81
2022-10-05T07:04:32.259Z,9.95
2022-10-05T07:07:06.702Z,10.06
2022-10-05T07:10:05.890Z,10.19
2022-10-05T07:12:39.509Z,10.32
2022-10-05T07:15:19.382Z,10.38
2022-10-05T07:17:57.960Z,10.56
2022-10-05T07:20:36.622Z,10.74
2022-10-05T07:23:12.869Z,10.87
2022-10-05T07:26:07.572Z,11.30
2022-10-05T07:28:47.087Z,11.30
2022-10-05T07:31:23.517Z,11.43
2022-10-05T07:34:02.268Z,11.57
2022-10-05T07:37:05.203Z,11.62
2022-10-05T07:40:01.354Z,11.82
2022-10-05T07:42:31.714Z,12.15
2022-10-05T07:45:26.124Z,12.15
2022-10-05T07:47:59.473Z,12.46
2022-10-05T07:50:47.644Z,12.72
2022-10-05T07:53:22.161Z,12.67
2022-10-05T07:55:56.204Z,12.88
2022-10-05T07:58:32.112Z,13.34
2022-10-05T08:01:05.164Z,13.71
2022-10-05T08:04:12.694Z,14.18
2022-10-05T08:06:54.269Z,14.18
2022-10-05T08:09:41.896Z,14.46
2022-10-05T08:12:17.351Z,14.17
2022-10-05T08:15:08.925Z,14.57
2022-10-05T08:17:41.716Z,14.50
2022-10-05T08:20:26.523Z,15.03
2022-10-05T08:23:01.981Z,15.23
2022-10-05T08:25:49.562Z,15.39
2022-10-05T08:28:37.700Z,15.78
2022-10-05T08:31:23.325Z,15.84
2022-10-05T08:34:12.723Z,15.75
2022-10-05T08:36:54.095Z,16.07
2022-10-05T08:39:26.755Z,16.16
2022-10-05T08:42:29.994Z,16.25
2022-10-05T08:45:28.202Z,16.46
2022-10-05T08:48:17.432Z,16.52
2022-10-05T08:50:56.334Z,16.69
2022-10-05T08:53:57.763Z,16.70
2022-10-05T08:56:50.408Z,16.89
2022-10-05T08:59:42.364Z,16.83
2022-10-05T09:02:17.592Z,16.69
2022-10-05T09:05:01.072Z,16.74
2022-10-05T09:07:36.957Z,16.67
2022-10-05T09:10:28.888Z,16.81
2022-10-05T09:13:14.295Z,16.95
2022-10-05T09:16:15.515Z,17.22
2022-10-05T09:19:00.131Z,17.16
2022-10-05T09:21:52.407Z,17.33
2022-10-05T09:24:28.212Z,17.39
2022-10-05T09:27:06.781Z,17.46
2022-10-05T09:29:45.173Z,17.65
2022-10-05T09:32:24.674Z,17.66
2022-10-05T09:35:16.810Z,17.52
2022-10-05T09:38:15.126Z,17.69
2022-10-05T09:41:10.188Z,17.33
2022-10-05T09:44:05.382Z,17.61
2022-10-05T09:47:01.456Z,17.44
2022-10-05T09:50:08.743Z,17.52
2022-10-05T09:52:53.887Z,17.34
2022-10-05T09:55:39.935Z,17.28
2022-10-05T09:58:35.231Z,17.47
2022-10-05T10:01:42.714Z,17.58
2022-10-05T10:04:18.037Z,17.61
2022-10-05T10:07:08.060Z,17.59
2022-10-05T10:10:00.453Z,17.60
2022-10-05T10:12:45.221Z,17.64
2022-10-05T10:15:35.495Z,17.56
2022-10-05T10:18:32.153Z,17.85
2022-10-05T10:21:24.661Z,18.25
2022-10-05T10:24:00.877Z,18.55
2022-10-05T10:26:39.171Z,18.55
2022-10-05T10:29:35.905Z,18.36
2022-10-05T10:32:38.652Z,18.15
2022-10-05T10:35:38.679Z,18.39
2022-10-05T10:38:22.196Z,18.53
2022-10-05T10:41:14.632Z,19.09
2022-10-05T10:43:53.127Z,19.15
2022-10-05T10:46:40.490Z,19.15
2022-10-05T10:49:35.967Z,19.33
2022-10-05T10:52:12.343Z,19.27
2022-10-05T10:54:56.396Z,19.43
2022-10-05T10:58:00.880Z,19.56
2022-10-05T11:00:54.629Z,19.65
2022-10-05T11:03:27.538Z,19.45
2022-10-05T11:06:03.134Z,19.54
2022-10-05T11:08:44.571Z,19.62
2022-10-05T11:11:17.847Z,19.76
2022-10-05T11:13:58.049Z,20.06
2022-10-05T11:16:34.517Z,20.20
2022-10-05T11:20:02.651Z,20.11
2022-10-05T11:22:44.097Z,20.42
2022-10-05T11:25:40.654Z,20.60
2022-10-05T11:28:37.920Z,20.67
2022-10-05T11:31:33.440Z,20.46
2022-10-05T11:34:36.898Z,20.32
2022-10-05T11:37:31.757Z,20.26
2022-10-05T11:40:36.527Z,20.41
2022-10-05T11:43:16.153Z,20.39
2022-10-05T11:46:10.310Z,20.39
2022-10-05T11:48:43.173Z,20.39
2022-10-05T11:51:34.271Z,20.51
2022-10-05T11:54:17.631Z,20.26
2022-10-05T11:56:59.502Z,20.50
2022-10-05T11:59:41.514Z,20.47
2022-10-05T12:02:36.937Z,20.66
2022-10-05T12:05:11.280Z,20.38
2022-10-05T12:08:10.774Z,20.75
2022-10-05T12:10:49.580Z,20.58
2022-10-05T12:13:30.993Z,20.58
2022-10-05T12:16:19.113Z,20.59
2022-10-05T12:18:52.048Z,20.45
2022-10-05T12:21:27.716Z,20.51
2022-10-05T12:24:03.165Z,20.36
2022-10-05T12:27:00.106Z,20.47
2022-10-05T12:29:32.940Z,20.58
2022-10-05T12:32:14.571Z,20.72
2022-10-05T12:34:56.570Z,21.19
2022-10-05T12:37:39.894Z,20.85
2022-10-05T12:40:24.366Z,21.01
2022-10-05T12:43:26.247Z,20.91
2022-10-05T12:46:02.665Z,21.09
2022-10-05T12:48:59.320Z,20.95
2022-10-05T12:51:50.830Z,21.16
2022-10-05T12:54:42.656Z,21.32
2022-10-05T12:57:24.571Z,21.18
2022-10-05T13:00:12.866Z,21.28
2022-10-05T13:02:57.401Z,21.41
2022-10-05T13:05:59.063Z,21.67
2022-10-05T13:08:40.628Z,21.80
2022-10-05T13:11:16.908Z,21.62
2022-10-05T13:13:56.188Z,21.66
2022-10-05T13:16:45.785Z,21.81
2022-10-05T13:19:24.832Z,21.98
2022-10-05T13:22:18.830Z,21.72
2022-10-05T13:25:03.647Z,21.72
2022-10-05T13:27:36.563Z,21.65
2022-10-05T13:30:21.926Z,21.40
2022-10-05T13:33:08.654Z,21.47
2022-10-05T13:35:41.574Z,21.30
2022-10-05T13:38:30.902Z,21.57
2022-10-05T13:41:26.264Z,21.36
2022-10-05T13:44:14.796Z,21.44
2022-10-05T13:46:56.381Z,21.44
2022-10-05T13:52:35.898Z,20.98
2022-10-05T13:55:09.508Z,21.23
2022-10-05T13:58:03.475Z,20.99
2022-10-05T14:00:36.362Z,21.08
2022-10-05T14:03:10.964Z,20.83
2022-10-05T14:05:44.885Z,20.81
2022-10-05T14:08:18.496Z,20.89
2022-10-05T14:10:49.414Z,20.62
2022-10-05T14:13:26.745Z,20.62
2022-10-05T14:16:05.419Z,20.42
2022-10-05T14:18:38.412Z,20.39
2022-10-05T14:21:14.332Z,20.26
2022-10-05T14:23:44.603Z,20.14
2022-10-05T14:26:29.662Z,20.13
2022-10-05T14:29:02.700Z,20.06
2022-10-05T14:31:38.109Z,20.14
2022-10-05T14:34:29.457Z,20.11
2022-10-05T14:37:02.383Z,19.80
2022-10-05T14:39:35.644Z,19.82
2022-10-05T14:42:18.499Z,19.80
2022-10-05T14:45:03.171Z,19.80
2022-10-05T14:47:34.408Z,19.67
2022-10-05T14:50:19.402Z,19.51
2022-10-05T14:53:14.242Z,19.45
2022-10-05T14:55:58.895Z,19.40
2022-10-05T14:58:40.310Z,19.26
2022-10-05T15:01:27.934Z,19.24
2022-10-05T15:04:07.009Z,19.08
2022-10-05T15:06:39.862Z,18.85
2022-10-05T15:09:19.249Z,19.02
2022-10-05T15:11:51.870Z,18.71
2022-10-05T15:14:24.623Z,18.58
2022-10-05T15:17:06.097Z,18.89
2022-10-05T15:19:59.788Z,18.83
2022-10-05T15:22:50.758Z,18.73
2022-10-05T15:25:27.081Z,18.61
2022-10-05T15:28:16.525Z,18.66
2022-10-05T15:30:59.416Z,18.31
2022-10-05T15:33:38.269Z,18.06
2022-10-05T15:36:11.796Z,18.04
2022-10-05T15:38:50.938Z,18.15
2022-10-05T15:41:30.141Z,18.05
2022-10-05T15:44:25.708Z,18.04
2022-10-05T15:46:58.596Z,17.79
2022-10-05T15:50:00.886Z,17.65
2022-10-05T15:52:48.890Z,17.58
2022-10-05T15:55:47.165Z,17.17
2022-10-05T15:58:32.797Z,17.17
2022-10-05T16:01:14.854Z,17.31
2022-10-05T16:03:51.443Z,17.31
2022-10-05T16:06:44.875Z,17.03
2022-10-05T16:09:33.057Z,16.91
2022-10-05T16:12:09.741Z,16.87
2022-10-05T16:15:02.319Z,16.81
2022-10-05T16:17:41.457Z,16.33
2022-10-05T16:20:36.581Z,16.37
2022-10-05T16:23:24.931Z,16.08
2022-10-05T16:26:21.658Z,16.00
2022-10-05T16:29:12.941Z,15.70
2022-10-05T16:32:00.190Z,15.47
2022-10-05T16:34:56.786Z,15.27
2022-10-05T16:37:29.709Z,15.30
2022-10-05T16:43:20.222Z,15.09
2022-10-05T16:46:02.071Z,15.11
2022-10-05T16:48:35.006Z,14.78
2022-10-05T16:51:24.282Z,14.64
2022-10-05T16:53:58.785Z,14.42
2022-10-05T16:56:31.676Z,14.66
2022-10-05T16:59:07.450Z,14.56
2022-10-05T17:01:49.377Z,14.45
2022-10-05T17:04:35.885Z,14.57
2022-10-05T17:07:27.284Z,14.70
2022-10-05T17:10:16.246Z,14.78
2022-10-05T17:13:07.428Z,14.78
2022-10-05T17:16:06.411Z,14.50
2022-10-05T17:19:15.312Z,14.41
2022-10-05T17:22:03.094Z,14.15
2022-10-05T17:24:44.311Z,14.32
2022-10-05T17:27:37.785Z,14.33
2022-10-05T17:30:31.823Z,14.12
2022-10-05T17:33:22.158Z,13.94
2022-10-05T17:35:55.144Z,13.80
2022-10-05T17:38:37.817Z,13.49
2022-10-05T17:41:25.985Z,13.47
2022-10-05T17:44:18.738Z,13.31
2022-10-05T17:46:56.990Z,13.60
2022-10-05T17:49:52.751Z,13.60
2022-10-05T17:52:47.065Z,13.49
2022-10-05T17:55:28.220Z,13.52
2022-10-05T17:58:00.898Z,13.53
2022-10-05T18:00:39.233Z,13.26
2022-10-05T18:03:37.815Z,13.17
2022-10-05T18:06:30.372Z,13.12
2022-10-05T18:09:20.104Z,13.13
2022-10-05T18:12:19.265Z,12.90
2022-10-05T18:15:00.704Z,12.85
2022-10-05T18:17:46.440Z,12.86
2022-10-05T18:20:31.821Z,12.90
2022-10-05T18:23:09.711Z,12.66
2022-10-05T18:25:48.352Z,12.59
2022-10-05T18:28:21.009Z,12.38
2022-10-05T18:31:08.995Z,12.33
2022-10-05T18:33:41.950Z,12.44
2022-10-05T18:36:36.852Z,12.24
2022-10-05T18:39:23.197Z,12.12
2022-10-05T18:42:23.116Z,12.02
2022-10-05T18:45:26.381Z,11.98
2022-10-05T18:48:02.215Z,11.74
2022-10-05T18:50:56.252Z,11.57
2022-10-05T18:53:35.066Z,11.56
2022-10-05T18:56:19.907Z,11.41
2022-10-05T18:59:08.621Z,11.36
2022-10-05T19:01:53.610Z,11.34
2022-10-05T19:04:26.444Z,11.27
2022-10-05T19:07:00.403Z,11.22
2022-10-05T19:09:52.430Z,11.34
2022-10-05T19:12:44.944Z,11.29
2022-10-05T19:15:46.426Z,11.25
2022-10-05T19:18:29.398Z,11.24
2022-10-05T19:21:35.341Z,11.23
2022-10-05T19:24:26.661Z,11.15
2022-10-05T19:27:19.811Z,11.08
2022-10-05T19:30:08.828Z,11.06
2022-10-05T19:32:56.405Z,10.99
2022-10-05T19:35:47.556Z,10.99
2022-10-05T19:38:38.382Z,10.95
2022-10-05T19:41:22.490Z,10.94
2022-10-05T19:43:55.412Z,11.18
2022-10-05T19:46:36.974Z,11.03
2022-10-05T19:49:10.744Z,10.85
2022-10-05T19:51:51.527Z,10.78
2022-10-05T19:54:32.401Z,10.70
2022-10-05T19:57:04.205Z,10.60
2022-10-05T19:59:34.886Z,10.42
2022-10-05T20:02:04.571Z,10.42
2022-10-05T20:04:37.961Z,10.35
2022-10-05T20:07:11.051Z,10.28
2022-10-05T20:09:59.712Z,10.24
2022-10-05T20:12:52.934Z,10.17
2022-10-05T20:15:44.423Z,9.98
2022-10-05T20:18:56.706Z,9.98
2022-10-05T20:21:46.201Z,9.87
2022-10-05T20:24:33.687Z,9.87
2022-10-05T20:27:13.834Z,9.76
2022-10-05T20:29:44.093Z,9.70
2022-10-05T20:32:20.135Z,9.60
2022-10-05T20:34:51.090Z,9.56
2022-10-05T20:37:20.150Z,9.50
2022-10-05T20:39:51.875Z,9.40
2022-10-05T20:42:23.025Z,9.36
2022-10-05T20:44:56.650Z,9.32
2022-10-05T20:47:25.035Z,9.28
2022-10-05T20:49:55.218Z,9.21
2022-10-05T20:52:24.798Z,9.10
2022-10-05T20:54:56.302Z,9.07
2022-10-05T20:57:26.779Z,8.98
2022-10-05T20:59:56.301Z,8.99
2022-10-05T21:02:26.430Z,8.76
2022-10-05T21:04:57.531Z,8.77
2022-10-05T21:07:27.515Z,8.77
2022-10-05T21:09:57.326Z,8.87
2022-10-05T21:12:27.153Z,8.78
2022-10-05T21:14:59.533Z,8.63
2022-10-05T21:17:29.450Z,8.53
2022-10-05T21:19:59.952Z,8.40
2022-10-05T21:22:29.455Z,8.41
2022-10-05T21:24:59.656Z,8.36
2022-10-05T21:27:31.104Z,8.32
2022-10-05T21:30:00.992Z,8.26
2022-10-05T21:32:30.893Z,8.29
2022-10-05T21:35:00.927Z,8.33
2022-10-05T21:37:30.747Z,8.34
2022-10-05T21:40:00.740Z,8.69
2022-10-05T21:42:30.982Z,9.18
2022-10-05T21:45:01.488Z,9.82
2022-10-05T21:47:31.173Z,10.11
2022-10-05T21:50:03.696Z,10.72
2022-10-05T21:52:34.531Z,11.19
2022-10-05T21:55:06.000Z,11.58
2022-10-05T21:57:38.104Z,12.00
2022-10-05T22:00:10.522Z,12.64
2022-10-05T22:02:40.608Z,12.64
2022-10-05T22:05:10.436Z,12.92
2022-10-05T22:07:40.440Z,12.99
2022-10-05T22:10:11.042Z,12.99
2022-10-05T22:12:42.263Z,13.21
2022-10-05T22:15:12.149Z,13.43
2022-10-05T22:17:42.834Z,13.51
2022-10-05T22:20:14.551Z,13.42
2022-10-05T22:22:44.360Z,13.39
2022-10-05T22:25:16.038Z,13.17
2022-10-05T22:27:46.104Z,13.10
2022-10-05T22:30:16.193Z,13.11
2022-10-05T22:32:46.027Z,13.10
2022-10-05T22:35:15.939Z,13.11
2022-10-05T22:37:46.741Z,13.11
2022-10-05T22:40:16.644Z,12.79
2022-10-05T22:42:46.414Z,12.51
2022-10-05T22:45:16.297Z,12.51
2022-10-05T22:47:46.134Z,12.11
2022-10-05T22:50:16.066Z,11.89
2022-10-05T22:52:46.367Z,11.73
2022-10-05T22:55:15.947Z,11.64
2022-10-05T22:57:45.913Z,11.49
2022-10-05T23:00:15.817Z,11.15
2022-10-05T23:02:46.189Z,11.15
2022-10-05T23:05:17.079Z,11.12
2022-10-05T23:07:47.719Z,10.87
2022-10-05T23:10:19.274Z,10.87
2022-10-05T23:13:01.063Z,10.84
2022-10-05T23:15:31.240Z,10.77
2022-10-05T23:18:01.123Z,10.78
2022-10-05T23:20:31.951Z,10.75
2022-10-05T23:23:01.775Z,10.77
2022-10-05T23:25:31.585Z,10.84
2022-10-05T23:28:03.447Z,10.86
2022-10-05T23:30:33.640Z,10.88
2022-10-05T23:33:03.551Z,10.90
2022-10-05T23:35:33.700Z,10.99
2022-10-05T23:38:03.749Z,11.19
2022-10-05T23:40:33.723Z,11.10
2022-10-05T23:43:03.540Z,11.10
2022-10-05T23:45:33.730Z,10.73
2022-10-05T23:48:03.524Z,10.73
2022-10-05T23:50:34.026Z,10.80
2022-10-05T23:53:04.368Z,10.80
2022-10-05T23:55:34.160Z,10.64
2022-10-05T23:58:04.036Z,10.59
